createdAt,value
2019-02-26T00:01:14.431Z,9.800000
2019-02-26T00:03:46.743Z,9.800000
2019-02-26T00:06:18.451Z,9.900000
2019-02-26T00:08:51.338Z,9.900000
2019-02-26T00:11:26.361Z,9.200000
2019-02-26T00:13:58.902Z,9.200000
2019-02-26T00:16:29.344Z,10.000000
2019-02-26T00:19:02.616Z,10.000000
2019-02-26T00:21:33.575Z,10.000000
2019-02-26T00:24:05.027Z,10.000000
2019-02-26T00:26:38.430Z,8.600000
2019-02-26T00:29:09.383Z,8.600000
2019-02-26T00:31:39.748Z,9.300000
2019-02-26T00:34:10.760Z,9.300000
2019-02-26T00:36:43.469Z,9.300000
2019-02-26T00:39:13.841Z,9.300000
2019-02-26T00:41:44.243Z,8.700000
2019-02-26T00:44:14.604Z,8.700000
2019-02-26T00:46:44.971Z,9.000000
2019-02-26T00:49:15.406Z,9.000000
2019-02-26T00:51:47.882Z,10.000000
2019-02-26T00:54:22.169Z,10.000000
2019-02-26T00:56:57.029Z,10.000000
2019-02-26T00:59:29.484Z,10.000000
2019-02-26T01:01:59.767Z,8.300000
2019-02-26T01:04:30.054Z,8.300000
2019-02-26T01:07:01.186Z,10.000000
2019-02-26T01:09:33.998Z,10.000000
2019-02-26T01:12:06.156Z,8.700000
2019-02-26T01:14:36.854Z,8.000000
2019-02-26T01:17:09.452Z,8.000000
2019-02-26T01:19:40.735Z,9.900000
2019-02-26T01:22:12.950Z,9.900000
2019-02-26T01:24:43.364Z,10.000000
2019-02-26T01:27:13.717Z,10.000000
2019-02-26T01:29:44.525Z,9.100000
2019-02-26T01:32:18.094Z,9.100000
2019-02-26T01:34:50.704Z,8.000000
2019-02-26T01:37:21.079Z,8.000000
2019-02-26T01:39:52.195Z,8.300000
2019-02-26T01:42:25.330Z,8.300000
2019-02-26T01:44:57.408Z,10.500000
2019-02-26T01:47:28.503Z,10.500000
2019-02-26T01:49:59.430Z,10.500000
2019-02-26T01:52:29.927Z,10.500000
2019-02-26T01:55:02.685Z,9.100000
2019-02-26T01:57:33.128Z,9.100000
2019-02-26T02:00:06.441Z,9.100000
2019-02-26T02:02:37.316Z,9.100000
2019-02-26T02:05:07.699Z,9.000000
2019-02-26T02:07:38.132Z,9.000000
2019-02-26T02:10:08.380Z,10.400000
2019-02-26T02:12:39.592Z,10.400000
2019-02-26T02:15:12.369Z,9.400000
2019-02-26T02:17:44.934Z,9.400000
2019-02-26T02:20:18.075Z,7.700000
2019-02-26T02:22:49.632Z,7.700000
2019-02-26T02:25:19.996Z,8.400000
2019-02-26T02:27:52.502Z,8.400000
2019-02-26T02:30:30.395Z,9.000000
2019-02-26T02:33:02.167Z,9.000000
2019-02-26T02:35:32.530Z,8.600000
2019-02-26T02:38:04.757Z,8.600000
2019-02-26T02:40:38.014Z,8.800000
2019-02-26T02:43:12.406Z,8.800000
2019-02-26T02:45:47.489Z,8.300000
2019-02-26T02:48:18.363Z,8.300000
2019-02-26T02:50:48.738Z,8.500000
2019-02-26T02:53:21.239Z,8.500000
2019-02-26T02:55:54.249Z,8.400000
2019-02-26T02:58:26.044Z,8.400000
2019-02-26T03:00:57.983Z,8.500000
2019-02-26T03:03:30.779Z,8.500000
2019-02-26T03:06:07.617Z,8.500000
2019-02-26T03:08:42.115Z,8.500000
2019-02-26T03:11:13.402Z,8.100000
2019-02-26T03:13:50.758Z,8.100000
2019-02-26T03:16:24.170Z,7.400000
2019-02-26T03:18:57.199Z,7.400000
2019-02-26T03:21:28.651Z,7.400000
2019-02-26T03:24:02.889Z,9.500000
2019-02-26T03:26:33.874Z,9.500000
2019-02-26T03:29:04.222Z,8.600000
2019-02-26T03:31:39.708Z,8.600000
2019-02-26T03:34:21.771Z,9.200000
2019-02-26T03:36:57.370Z,9.200000
2019-02-26T03:39:30.092Z,9.300000
2019-02-26T03:42:00.355Z,9.300000
2019-02-26T03:44:30.735Z,8.200000
2019-02-26T03:47:01.136Z,8.200000
2019-02-26T03:49:31.733Z,7.800000
2019-02-26T03:52:02.092Z,7.800000
2019-02-26T03:54:32.439Z,8.400000
2019-02-26T03:57:02.703Z,8.400000
2019-02-26T03:59:33.038Z,8.200000
2019-02-26T04:02:03.403Z,8.200000
2019-02-26T04:04:33.810Z,8.100000
2019-02-26T04:07:07.159Z,8.100000
2019-02-26T04:09:44.082Z,7.500000
2019-02-26T04:12:15.415Z,7.500000
2019-02-26T04:14:48.091Z,7.400000
2019-02-26T04:17:23.182Z,7.400000
2019-02-26T04:19:55.828Z,8.400000
2019-02-26T04:22:26.529Z,8.400000
2019-02-26T04:25:01.005Z,8.000000
2019-02-26T04:27:36.303Z,8.000000
2019-02-26T04:30:10.972Z,7.900000
2019-02-26T04:32:43.536Z,7.900000
2019-02-26T04:35:16.299Z,10.400000
2019-02-26T04:37:46.746Z,10.400000
2019-02-26T04:40:17.031Z,9.800000
2019-02-26T04:42:47.445Z,9.800000
2019-02-26T04:45:17.797Z,9.800000
2019-02-26T04:47:49.506Z,9.800000
2019-02-26T04:50:26.058Z,9.700000
2019-02-26T04:53:01.845Z,9.700000
2019-02-26T04:55:36.062Z,9.000000
2019-02-26T04:58:08.759Z,9.000000
2019-02-26T05:00:41.047Z,8.000000
2019-02-26T05:03:14.142Z,8.000000
2019-02-26T05:05:45.521Z,9.400000
2019-02-26T05:08:17.783Z,9.400000
2019-02-26T05:10:49.821Z,9.800000
2019-02-26T05:13:24.599Z,10.200000
2019-02-26T05:15:56.913Z,10.200000
2019-02-26T05:18:28.651Z,10.500000
2019-02-26T05:21:08.296Z,10.500000
2019-02-26T05:23:46.462Z,9.500000
2019-02-26T05:26:20.800Z,9.500000
2019-02-26T05:28:51.601Z,8.400000
2019-02-26T05:31:22.012Z,8.400000
2019-02-26T05:33:54.677Z,10.900000
2019-02-26T05:36:28.356Z,10.900000
2019-02-26T05:39:00.370Z,9.500000
2019-02-26T05:41:32.511Z,9.500000
2019-02-26T05:44:06.632Z,9.700000
2019-02-26T05:46:37.780Z,9.700000
2019-02-26T05:49:12.536Z,10.000000
2019-02-26T05:51:43.744Z,10.000000
2019-02-26T05:54:15.317Z,10.300000
2019-02-26T05:56:49.836Z,10.300000
2019-02-26T05:59:21.690Z,10.700000
2019-02-26T06:01:55.320Z,10.700000
2019-02-26T06:04:26.196Z,9.100000
2019-02-26T06:06:58.855Z,9.100000
2019-02-26T06:09:30.543Z,8.400000
2019-02-26T06:12:03.890Z,8.400000
2019-02-26T06:14:36.285Z,10.400000
2019-02-26T06:17:10.520Z,10.400000
2019-02-26T06:19:44.876Z,10.400000
2019-02-26T06:22:18.135Z,10.400000
2019-02-26T06:24:54.969Z,10.700000
2019-02-26T06:27:27.653Z,10.700000
2019-02-26T06:30:00.128Z,11.300000
2019-02-26T06:32:32.859Z,11.300000
2019-02-26T06:35:06.685Z,12.400000
2019-02-26T06:37:40.322Z,12.400000
2019-02-26T06:40:10.731Z,9.800000
2019-02-26T06:42:41.253Z,9.800000
2019-02-26T06:45:13.955Z,10.900000
2019-02-26T06:47:48.557Z,10.900000
2019-02-26T06:50:21.557Z,12.100000
2019-02-26T06:52:51.905Z,9.400000
2019-02-26T06:55:22.225Z,9.400000
2019-02-26T06:57:55.005Z,12.100000
2019-02-26T07:00:27.006Z,12.100000
2019-02-26T07:03:00.138Z,10.000000
2019-02-26T07:05:32.635Z,10.000000
2019-02-26T07:08:04.790Z,8.700000
2019-02-26T07:10:36.806Z,8.700000
2019-02-26T07:13:09.286Z,17.200000
2019-02-26T07:15:40.477Z,17.200000
2019-02-26T07:18:16.347Z,15.400000
2019-02-26T07:20:49.876Z,15.400000
2019-02-26T07:23:22.874Z,17.400000
2019-02-26T07:25:53.245Z,17.400000
2019-02-26T07:28:24.629Z,19.100000
2019-02-26T07:30:57.205Z,19.100000
2019-02-26T07:33:29.687Z,18.300000
2019-02-26T07:36:02.341Z,18.300000
2019-02-26T07:38:40.951Z,16.100000
2019-02-26T07:41:11.999Z,16.100000
2019-02-26T07:43:44.612Z,15.700000
2019-02-26T07:46:19.209Z,15.700000
2019-02-26T07:48:53.642Z,15.200000
2019-02-26T07:51:24.962Z,15.200000
2019-02-26T07:53:56.464Z,14.800000
2019-02-26T07:56:32.062Z,14.800000
2019-02-26T07:59:04.961Z,14.600000
2019-02-26T08:01:39.536Z,14.600000
2019-02-26T08:04:11.589Z,14.800000
2019-02-26T08:06:43.736Z,14.800000
2019-02-26T08:09:14.718Z,13.800000
2019-02-26T08:11:48.990Z,13.800000
2019-02-26T08:14:20.985Z,14.700000
2019-02-26T08:16:55.668Z,14.700000
2019-02-26T08:19:29.744Z,14.200000
2019-02-26T08:22:00.315Z,14.200000
2019-02-26T08:24:30.701Z,14.900000
2019-02-26T08:27:03.255Z,14.900000
2019-02-26T08:29:35.971Z,15.000000
2019-02-26T08:32:06.490Z,15.000000
2019-02-26T08:34:39.194Z,14.900000
2019-02-26T08:37:10.231Z,14.900000
2019-02-26T08:39:41.290Z,13.400000
2019-02-26T08:42:11.602Z,13.400000
2019-02-26T08:44:41.972Z,14.300000
2019-02-26T08:47:14.011Z,14.300000
2019-02-26T08:49:47.471Z,14.700000
2019-02-26T08:52:21.495Z,14.500000
2019-02-26T08:54:52.465Z,14.500000
2019-02-26T08:57:22.759Z,14.200000
2019-02-26T08:59:54.635Z,14.200000
2019-02-26T09:02:25.015Z,13.400000
2019-02-26T09:04:55.380Z,13.400000
2019-02-26T09:07:26.326Z,14.300000
2019-02-26T09:09:57.569Z,14.300000
2019-02-26T09:12:28.167Z,13.600000
2019-02-26T09:14:58.589Z,13.600000
2019-02-26T09:17:30.464Z,12.200000
2019-02-26T09:20:09.391Z,12.200000
2019-02-26T09:22:45.701Z,12.200000
2019-02-26T09:25:20.404Z,12.200000
2019-02-26T09:27:53.034Z,12.200000
2019-02-26T09:30:23.361Z,12.200000
2019-02-26T09:32:53.655Z,11.700000
2019-02-26T09:35:28.173Z,11.700000
2019-02-26T09:38:00.968Z,10.600000
2019-02-26T09:40:34.231Z,10.600000
2019-02-26T09:43:06.128Z,9.900000
2019-02-26T09:45:36.656Z,9.900000
2019-02-26T09:48:07.008Z,10.900000
2019-02-26T09:50:38.648Z,10.900000
2019-02-26T09:53:10.628Z,11.900000
2019-02-26T09:55:40.943Z,11.900000
2019-02-26T09:58:13.348Z,10.600000
2019-02-26T10:00:46.076Z,10.600000
2019-02-26T10:03:18.262Z,11.100000
2019-02-26T10:05:50.256Z,11.100000
2019-02-26T10:08:24.949Z,8.200000
2019-02-26T10:10:59.674Z,8.200000
2019-02-26T10:13:32.073Z,11.700000
2019-02-26T10:16:04.495Z,11.700000
2019-02-26T10:18:36.917Z,7.700000
2019-02-26T10:21:09.146Z,7.700000
2019-02-26T10:23:41.516Z,7.500000
2019-02-26T10:26:11.752Z,7.500000
2019-02-26T10:28:42.760Z,6.400000
2019-02-26T10:31:15.863Z,6.400000
2019-02-26T10:33:48.264Z,8.900000
2019-02-26T10:36:19.361Z,8.900000
2019-02-26T10:38:50.871Z,6.900000
2019-02-26T10:41:22.977Z,6.900000
2019-02-26T10:43:53.414Z,9.400000
2019-02-26T10:46:23.790Z,9.400000
2019-02-26T10:48:54.129Z,12.500000
2019-02-26T10:51:27.017Z,12.500000
2019-02-26T10:53:59.826Z,7.500000
2019-02-26T10:56:35.225Z,7.500000
2019-02-26T10:59:12.513Z,7.300000
2019-02-26T11:01:43.514Z,7.300000
2019-02-26T11:04:13.899Z,10.500000
2019-02-26T11:06:45.236Z,10.500000
2019-02-26T11:09:21.213Z,8.200000
2019-02-26T11:11:52.448Z,9.800000
2019-02-26T11:14:22.752Z,9.800000
2019-02-26T11:16:53.062Z,5.300000
2019-02-26T11:19:25.237Z,5.300000
2019-02-26T11:21:58.696Z,5.600000
2019-02-26T11:24:33.510Z,5.600000
2019-02-26T11:27:04.389Z,10.200000
2019-02-26T11:29:36.000Z,10.200000
2019-02-26T11:32:10.414Z,11.000000
2019-02-26T11:34:42.939Z,11.000000
2019-02-26T11:37:13.344Z,5.700000
2019-02-26T11:39:43.784Z,5.700000
2019-02-26T11:42:16.471Z,5.200000
2019-02-26T11:44:48.853Z,5.200000
2019-02-26T11:47:20.626Z,8.000000
2019-02-26T11:49:51.013Z,8.000000
2019-02-26T11:52:21.428Z,4.600000
2019-02-26T11:54:51.793Z,4.600000
2019-02-26T11:57:22.081Z,6.800000
2019-02-26T11:59:52.504Z,6.800000
2019-02-26T12:02:28.023Z,6.200000
2019-02-26T12:05:02.892Z,6.200000
2019-02-26T12:07:35.342Z,10.300000
2019-02-26T12:10:09.530Z,10.300000
2019-02-26T12:12:42.498Z,13.600000
2019-02-26T12:15:15.010Z,13.600000
2019-02-26T12:17:46.105Z,11.800000
2019-02-26T12:20:19.563Z,11.800000
2019-02-26T12:22:52.458Z,13.900000
2019-02-26T12:25:25.204Z,13.900000
2019-02-26T12:27:55.663Z,7.700000
2019-02-26T12:30:26.013Z,7.700000
2019-02-26T12:32:56.377Z,21.000000
2019-02-26T12:35:26.592Z,21.000000
2019-02-26T12:38:01.389Z,9.300000
2019-02-26T12:40:47.064Z,9.300000
2019-02-26T12:43:19.314Z,13.500000
2019-02-26T12:45:51.420Z,13.500000
2019-02-26T12:48:22.865Z,18.600000
2019-02-26T12:50:55.581Z,18.600000
2019-02-26T12:53:28.631Z,9.100000
2019-02-26T12:56:01.940Z,9.100000
2019-02-26T12:58:32.749Z,16.200000
2019-02-26T13:01:03.048Z,16.200000
2019-02-26T13:03:35.988Z,17.400000
2019-02-26T13:06:12.025Z,17.400000
2019-02-26T13:08:47.224Z,12.800000
2019-02-26T13:11:21.072Z,12.800000
2019-02-26T13:13:54.704Z,10.300000
2019-02-26T13:16:25.019Z,10.300000
2019-02-26T13:18:58.508Z,18.500000
2019-02-26T13:21:31.018Z,7.200000
2019-02-26T13:24:11.428Z,7.200000
2019-02-26T13:26:48.839Z,9.900000
2019-02-26T13:29:21.105Z,9.900000
2019-02-26T13:31:56.495Z,10.100000
2019-02-26T13:34:29.924Z,10.100000
2019-02-26T13:37:00.279Z,12.700000
2019-02-26T13:39:38.221Z,12.700000
2019-02-26T13:42:13.981Z,10.200000
2019-02-26T13:44:49.419Z,10.200000
2019-02-26T13:47:19.762Z,9.400000
2019-02-26T13:49:51.979Z,9.400000
2019-02-26T13:52:22.455Z,6.800000
2019-02-26T13:54:53.017Z,6.800000
2019-02-26T13:57:23.410Z,12.600000
2019-02-26T13:59:53.920Z,12.600000
2019-02-26T14:02:24.305Z,11.300000
2019-02-26T14:04:54.594Z,11.300000
2019-02-26T14:07:25.023Z,11.400000
2019-02-26T14:09:55.244Z,11.400000
2019-02-26T14:12:25.663Z,13.800000
2019-02-26T14:14:55.978Z,13.800000
2019-02-26T14:17:26.313Z,6.900000
2019-02-26T14:19:56.726Z,6.900000
2019-02-26T14:22:27.061Z,13.600000
2019-02-26T14:24:57.375Z,13.600000
2019-02-26T14:27:27.594Z,18.500000
2019-02-26T14:29:58.124Z,18.500000
2019-02-26T14:32:28.738Z,17.000000
2019-02-26T14:34:59.076Z,17.000000
2019-02-26T14:37:29.312Z,7.400000
2019-02-26T14:39:59.841Z,7.400000
2019-02-26T14:42:30.251Z,10.500000
2019-02-26T14:45:00.670Z,10.500000
2019-02-26T14:47:31.073Z,11.500000
2019-02-26T14:50:01.497Z,11.500000
2019-02-26T14:52:31.823Z,11.600000
2019-02-26T14:55:02.137Z,11.600000
2019-02-26T14:57:32.753Z,7.300000
2019-02-26T15:00:03.180Z,7.300000
2019-02-26T15:02:33.488Z,12.300000
2019-02-26T15:05:09.143Z,12.300000
2019-02-26T15:07:39.510Z,13.300000
2019-02-26T15:10:09.832Z,13.300000
2019-02-26T15:12:40.117Z,9.100000
2019-02-26T15:15:10.566Z,9.100000
2019-02-26T15:17:40.866Z,11.100000
2019-02-26T15:20:11.271Z,11.100000
2019-02-26T15:22:41.575Z,10.000000
2019-02-26T15:25:11.950Z,10.000000
2019-02-26T15:27:42.342Z,16.200000
2019-02-26T15:30:12.628Z,16.200000
2019-02-26T15:32:42.932Z,12.100000
2019-02-26T15:35:13.218Z,12.100000
2019-02-26T15:37:43.812Z,8.600000
2019-02-26T15:40:14.307Z,8.600000
2019-02-26T15:42:44.681Z,16.300000
2019-02-26T15:45:15.176Z,16.300000
2019-02-26T15:47:45.417Z,8.300000
2019-02-26T15:50:15.720Z,8.300000
2019-02-26T15:52:46.129Z,6.500000
2019-02-26T15:55:16.647Z,6.500000
2019-02-26T15:57:47.026Z,9.300000
2019-02-26T16:00:17.366Z,9.300000
2019-02-26T16:02:47.657Z,13.400000
2019-02-26T16:05:17.922Z,13.400000
2019-02-26T16:07:48.518Z,7.900000
2019-02-26T16:10:19.493Z,7.900000
2019-02-26T16:12:52.460Z,11.200000
2019-02-26T16:15:22.787Z,11.200000
2019-02-26T16:17:53.129Z,11.900000
2019-02-26T16:20:23.474Z,11.900000
2019-02-26T16:22:53.812Z,12.800000
2019-02-26T16:25:24.154Z,12.800000
2019-02-26T16:27:54.486Z,15.900000
2019-02-26T16:30:24.906Z,15.900000
2019-02-26T16:32:55.603Z,16.900000
2019-02-26T16:35:25.935Z,16.900000
2019-02-26T16:37:56.310Z,13.500000
2019-02-26T16:40:31.253Z,13.500000
2019-02-26T16:43:02.496Z,13.100000
2019-02-26T16:45:35.164Z,13.100000
2019-02-26T16:48:05.624Z,12.600000
2019-02-26T16:50:36.004Z,12.600000
2019-02-26T16:53:06.396Z,16.100000
2019-02-26T16:55:36.801Z,16.100000
2019-02-26T16:58:07.187Z,19.500000
2019-02-26T17:00:37.631Z,19.500000
2019-02-26T17:03:08.058Z,14.900000
2019-02-26T17:05:38.345Z,14.900000
2019-02-26T17:08:08.792Z,11.200000
2019-02-26T17:10:39.099Z,11.200000
2019-02-26T17:13:09.596Z,12.900000
2019-02-26T17:15:40.950Z,12.900000
2019-02-26T17:18:11.461Z,15.700000
2019-02-26T17:20:47.001Z,15.700000
2019-02-26T17:23:22.375Z,16.100000
2019-02-26T17:25:52.685Z,13.900000
2019-02-26T17:28:23.171Z,13.900000
2019-02-26T17:30:57.429Z,13.500000
2019-02-26T17:33:28.230Z,13.500000
2019-02-26T17:35:59.572Z,13.700000
2019-02-26T17:38:32.161Z,13.700000
2019-02-26T17:41:02.526Z,12.900000
2019-02-26T17:43:32.986Z,12.900000
2019-02-26T17:46:03.347Z,15.200000
2019-02-26T17:48:43.254Z,15.200000
2019-02-26T17:51:14.136Z,12.200000
2019-02-26T17:53:44.492Z,12.200000
2019-02-26T17:56:15.030Z,13.100000
2019-02-26T17:58:45.397Z,13.100000
2019-02-26T18:01:15.714Z,12.000000
2019-02-26T18:03:51.099Z,12.000000
2019-02-26T18:06:26.445Z,14.800000
2019-02-26T18:08:56.994Z,14.800000
2019-02-26T18:11:27.326Z,13.000000
2019-02-26T18:14:00.042Z,13.000000
2019-02-26T18:16:34.508Z,13.400000
2019-02-26T18:19:05.057Z,13.400000
2019-02-26T18:21:36.417Z,13.000000
2019-02-26T18:24:06.784Z,13.000000
2019-02-26T18:26:37.021Z,12.400000
2019-02-26T18:29:07.470Z,12.400000
2019-02-26T18:31:37.791Z,17.200000
2019-02-26T18:34:08.315Z,17.200000
2019-02-26T18:36:38.748Z,27.300000
2019-02-26T18:39:10.463Z,27.300000
2019-02-26T18:41:40.906Z,22.900000
2019-02-26T18:44:11.226Z,22.900000
2019-02-26T18:46:41.683Z,17.600000
2019-02-26T18:49:12.212Z,17.600000
2019-02-26T18:51:49.690Z,19.200000
2019-02-26T18:54:20.329Z,19.200000
2019-02-26T18:56:51.484Z,18.100000
2019-02-26T18:59:22.184Z,18.100000
2019-02-26T19:01:52.941Z,18.000000
2019-02-26T19:04:23.365Z,18.000000
2019-02-26T19:06:53.733Z,16.000000
2019-02-26T19:09:24.398Z,16.000000
2019-02-26T19:11:55.528Z,20.600000
2019-02-26T19:14:27.955Z,20.600000
2019-02-26T19:16:58.258Z,17.900000
2019-02-26T19:19:28.569Z,17.900000
2019-02-26T19:21:59.033Z,18.600000
2019-02-26T19:24:29.499Z,18.600000
2019-02-26T19:26:59.941Z,15.300000
2019-02-26T19:29:31.655Z,15.300000
2019-02-26T19:32:02.399Z,18.100000
2019-02-26T19:34:32.724Z,18.100000
2019-02-26T19:37:03.003Z,17.500000
2019-02-26T19:39:33.813Z,17.500000
2019-02-26T19:42:04.535Z,15.000000
2019-02-26T19:44:35.988Z,15.000000
2019-02-26T19:47:06.725Z,12.800000
2019-02-26T19:49:39.613Z,12.800000
2019-02-26T19:52:10.611Z,16.000000
2019-02-26T19:54:41.981Z,16.000000
2019-02-26T19:57:12.901Z,14.400000
2019-02-26T19:59:46.781Z,14.400000
2019-02-26T20:02:17.911Z,12.900000
2019-02-26T20:04:48.214Z,12.900000
2019-02-26T20:07:18.595Z,11.300000
2019-02-26T20:09:48.960Z,11.300000
2019-02-26T20:12:19.262Z,12.700000
2019-02-26T20:14:49.689Z,12.700000
2019-02-26T20:17:20.445Z,14.100000
2019-02-26T20:19:50.784Z,14.100000
2019-02-26T20:22:21.296Z,12.400000
2019-02-26T20:24:51.688Z,12.400000
2019-02-26T20:27:22.368Z,13.300000
2019-02-26T20:29:52.853Z,13.300000
2019-02-26T20:32:23.360Z,14.500000
2019-02-26T20:34:53.683Z,14.500000
2019-02-26T20:37:24.321Z,12.100000
2019-02-26T20:39:55.368Z,12.100000
2019-02-26T20:42:26.807Z,18.600000
2019-02-26T20:44:59.280Z,18.600000
2019-02-26T20:47:31.635Z,15.200000
2019-02-26T20:50:02.666Z,18.900000
2019-02-26T20:52:33.419Z,18.900000
2019-02-26T20:55:03.846Z,13.400000
2019-02-26T20:57:37.410Z,13.400000
2019-02-26T21:00:07.970Z,17.200000
2019-02-26T21:02:38.222Z,17.200000
2019-02-26T21:05:08.582Z,14.800000
2019-02-26T21:07:38.930Z,14.800000
2019-02-26T21:10:09.369Z,17.500000
2019-02-26T21:12:39.811Z,17.500000
2019-02-26T21:15:13.593Z,17.200000
2019-02-26T21:17:44.617Z,17.200000
2019-02-26T21:20:14.848Z,13.800000
2019-02-26T21:22:54.614Z,13.800000
2019-02-26T21:25:26.200Z,16.900000
2019-02-26T21:28:00.721Z,16.900000
2019-02-26T21:30:31.799Z,15.000000
2019-02-26T21:33:02.166Z,15.000000
2019-02-26T21:35:32.510Z,19.200000
2019-02-26T21:38:05.747Z,19.200000
2019-02-26T21:40:37.387Z,17.200000
2019-02-26T21:43:07.762Z,17.200000
2019-02-26T21:45:38.131Z,18.200000
2019-02-26T21:48:08.473Z,18.200000
2019-02-26T21:50:38.817Z,17.700000
2019-02-26T21:53:09.179Z,17.700000
2019-02-26T21:55:44.275Z,18.000000
2019-02-26T21:58:15.110Z,18.000000
2019-02-26T22:00:45.698Z,20.000000
2019-02-26T22:03:16.072Z,20.000000
2019-02-26T22:05:46.387Z,17.200000
2019-02-26T22:08:16.771Z,17.200000
2019-02-26T22:10:47.223Z,17.100000
2019-02-26T22:13:17.764Z,17.100000
2019-02-26T22:15:53.296Z,17.200000
2019-02-26T22:18:23.555Z,17.200000
2019-02-26T22:20:54.067Z,16.500000
2019-02-26T22:23:24.452Z,16.500000
2019-02-26T22:25:55.419Z,18.800000
2019-02-26T22:28:26.012Z,18.800000
2019-02-26T22:30:56.606Z,18.300000
2019-02-26T22:33:26.977Z,18.300000
2019-02-26T22:35:59.419Z,16.700000
2019-02-26T22:38:30.499Z,16.700000
2019-02-26T22:41:02.327Z,19.100000
2019-02-26T22:43:33.278Z,19.100000
2019-02-26T22:46:03.603Z,16.400000
2019-02-26T22:48:33.947Z,16.400000
2019-02-26T22:51:04.381Z,16.300000
2019-02-26T22:53:36.676Z,16.300000
2019-02-26T22:56:07.548Z,19.400000
2019-02-26T22:58:42.985Z,19.400000
2019-02-26T23:01:13.504Z,16.600000
2019-02-26T23:03:46.059Z,16.600000
2019-02-26T23:06:16.853Z,16.600000
2019-02-26T23:08:47.142Z,16.600000
2019-02-26T23:11:17.559Z,17.400000
2019-02-26T23:13:48.000Z,17.400000
2019-02-26T23:16:19.129Z,15.900000
2019-02-26T23:18:49.544Z,15.900000
2019-02-26T23:21:24.847Z,17.600000
2019-02-26T23:24:00.123Z,17.600000
2019-02-26T23:26:30.477Z,15.200000
2019-02-26T23:29:00.789Z,15.200000
2019-02-26T23:31:32.885Z,17.300000
2019-02-26T23:34:03.747Z,17.300000
2019-02-26T23:36:35.221Z,16.700000
2019-02-26T23:39:05.834Z,16.700000
2019-02-26T23:41:36.340Z,17.100000
2019-02-26T23:44:06.657Z,17.100000
2019-02-26T23:46:36.965Z,16.400000
2019-02-26T23:49:07.339Z,16.400000
2019-02-26T23:51:37.718Z,17.400000
2019-02-26T23:54:08.062Z,17.400000
2019-02-26T23:56:38.389Z,14.200000
2019-02-26T23:59:08.908Z,14.200000
